createdAt,value
2018-07-29T00:00:05.860Z,25.57
2018-07-29T00:02:35.057Z,17.77
2018-07-29T00:05:03.186Z,18.80
2018-07-29T00:07:31.191Z,20.37
2018-07-29T00:09:59.182Z,21.43
2018-07-29T00:12:27.242Z,20.83
2018-07-29T00:14:55.233Z,19.67
2018-07-29T00:17:23.225Z,19.23
2018-07-29T00:19:51.315Z,24.23
2018-07-29T00:22:19.325Z,28.13
2018-07-29T00:24:47.321Z,25.90
2018-07-29T00:27:15.316Z,22.70
2018-07-29T00:29:43.316Z,22.90
2018-07-29T00:32:11.294Z,24.43
2018-07-29T00:34:39.348Z,24.43
2018-07-29T00:37:07.400Z,18.43
2018-07-29T00:39:35.428Z,23.30
2018-07-29T00:42:03.541Z,24.77
2018-07-29T00:44:31.540Z,29.63
2018-07-29T00:46:59.570Z,27.13
2018-07-29T00:49:27.561Z,23.97
2018-07-29T00:51:55.553Z,21.77
2018-07-29T00:54:23.548Z,20.70
2018-07-29T00:56:51.588Z,30.40
2018-07-29T00:59:19.588Z,34.07
2018-07-29T01:01:47.592Z,21.83
2018-07-29T01:04:15.648Z,23.20
2018-07-29T01:06:43.629Z,20.20
2018-07-29T01:09:12.848Z,19.53
2018-07-29T01:11:41.078Z,19.07
2018-07-29T01:14:09.105Z,22.97
2018-07-29T01:16:37.148Z,24.93
2018-07-29T01:19:05.437Z,25.30
2018-07-29T01:21:33.450Z,27.93
2018-07-29T01:24:01.436Z,23.10
2018-07-29T01:26:29.439Z,34.30
2018-07-29T01:28:57.456Z,30.60
2018-07-29T01:31:25.541Z,29.07
2018-07-29T01:33:53.560Z,35.93
2018-07-29T01:36:21.606Z,31.93
2018-07-29T01:38:49.753Z,34.93
2018-07-29T01:41:17.786Z,34.33
2018-07-29T01:43:45.796Z,35.53
2018-07-29T01:46:13.820Z,36.37
2018-07-29T01:48:42.129Z,27.63
2018-07-29T01:51:10.621Z,33.83
2018-07-29T01:53:38.664Z,28.80
2018-07-29T01:56:06.788Z,23.53
2018-07-29T01:58:34.816Z,29.10
2018-07-29T02:01:02.840Z,24.40
2018-07-29T02:03:30.816Z,27.80
2018-07-29T02:05:58.825Z,35.97
2018-07-29T02:08:26.844Z,31.90
2018-07-29T02:10:54.844Z,26.87
2018-07-29T02:13:22.832Z,29.63
2018-07-29T02:15:50.841Z,29.80
2018-07-29T02:18:18.864Z,33.13
2018-07-29T02:20:46.957Z,31.03
2018-07-29T02:23:14.968Z,35.10
2018-07-29T02:25:42.984Z,31.73
2018-07-29T02:28:10.963Z,27.47
2018-07-29T02:30:38.958Z,30.63
2018-07-29T02:33:06.936Z,36.03
2018-07-29T02:35:34.952Z,30.67
2018-07-29T02:38:02.928Z,44.63
2018-07-29T02:40:30.945Z,35.53
2018-07-29T02:42:58.966Z,32.40
2018-07-29T02:45:26.963Z,29.63
2018-07-29T02:47:54.964Z,36.00
2018-07-29T02:50:23.029Z,26.47
2018-07-29T02:52:51.018Z,35.70
2018-07-29T02:55:19.024Z,31.23
2018-07-29T02:57:47.024Z,23.57
2018-07-29T03:00:15.028Z,32.53
2018-07-29T03:02:43.024Z,28.77
2018-07-29T03:05:11.222Z,16.40
2018-07-29T03:07:39.237Z,17.10
2018-07-29T03:10:07.248Z,24.17
2018-07-29T03:12:35.277Z,19.47
2018-07-29T03:15:03.303Z,14.80
2018-07-29T03:17:31.308Z,14.33
2018-07-29T03:19:59.336Z,18.07
2018-07-29T03:22:27.347Z,15.53
2018-07-29T03:24:55.352Z,18.50
2018-07-29T03:27:23.345Z,16.20
2018-07-29T03:29:51.365Z,22.23
2018-07-29T03:32:19.364Z,13.23
2018-07-29T03:34:47.538Z,14.93
2018-07-29T03:37:15.493Z,15.33
2018-07-29T03:39:43.503Z,14.17
2018-07-29T03:42:11.500Z,15.47
2018-07-29T03:44:39.523Z,14.83
2018-07-29T03:47:07.574Z,11.90
2018-07-29T03:49:35.738Z,11.70
2018-07-29T03:52:03.886Z,13.47
2018-07-29T03:54:31.888Z,12.40
2018-07-29T03:56:59.932Z,12.20
2018-07-29T03:59:27.985Z,13.93
2018-07-29T04:01:55.981Z,9.90
2018-07-29T04:04:23.969Z,12.23
2018-07-29T04:06:52.022Z,12.57
2018-07-29T04:09:20.081Z,15.17
2018-07-29T04:11:48.064Z,10.90
2018-07-29T04:14:17.141Z,11.03
2018-07-29T04:16:45.156Z,12.13
2018-07-29T04:19:13.180Z,9.20
2018-07-29T04:21:41.251Z,11.90
2018-07-29T04:24:09.652Z,11.53
2018-07-29T04:26:38.436Z,12.40
2018-07-29T04:29:06.624Z,14.63
2018-07-29T04:31:34.664Z,17.83
2018-07-29T04:34:02.685Z,26.93
2018-07-29T04:36:30.712Z,16.43
2018-07-29T04:38:58.733Z,22.63
2018-07-29T04:41:26.772Z,20.20
2018-07-29T04:43:54.764Z,22.93
2018-07-29T04:46:22.772Z,24.80
2018-07-29T04:48:50.752Z,20.50
2018-07-29T04:51:18.824Z,16.10
2018-07-29T04:53:46.812Z,23.00
2018-07-29T04:56:15.177Z,22.37
2018-07-29T04:58:43.217Z,13.20
2018-07-29T05:01:11.149Z,13.40
2018-07-29T05:03:39.215Z,12.87
2018-07-29T05:06:07.277Z,16.37
2018-07-29T05:08:35.435Z,14.93
2018-07-29T05:11:03.444Z,12.77
2018-07-29T05:13:31.458Z,12.97
2018-07-29T05:15:59.477Z,17.40
2018-07-29T05:18:27.618Z,14.53
2018-07-29T05:21:02.288Z,12.43
2018-07-29T05:23:30.312Z,15.10
2018-07-29T05:25:58.410Z,18.07
2018-07-29T05:28:26.352Z,17.50
2018-07-29T05:30:54.364Z,16.30
2018-07-29T05:33:22.380Z,16.90
2018-07-29T05:35:50.364Z,19.93
2018-07-29T05:38:18.456Z,19.03
2018-07-29T05:40:46.469Z,22.77
2018-07-29T05:43:14.549Z,16.00
2018-07-29T05:45:42.687Z,18.57
2018-07-29T05:48:10.759Z,17.93
2018-07-29T05:50:38.856Z,13.60
2018-07-29T05:53:06.930Z,19.10
2018-07-29T05:55:35.137Z,11.87
2018-07-29T05:58:03.096Z,16.93
2018-07-29T06:00:31.065Z,14.97
2018-07-29T06:02:59.125Z,9.70
2018-07-29T06:05:27.141Z,13.73
2018-07-29T06:07:55.159Z,16.63
2018-07-29T06:10:23.141Z,14.03
2018-07-29T06:12:51.177Z,18.07
2018-07-29T06:15:19.246Z,12.40
2018-07-29T06:17:47.289Z,12.93
2018-07-29T06:20:15.306Z,11.73
2018-07-29T06:22:43.308Z,9.40
2018-07-29T06:25:11.360Z,11.70
2018-07-29T06:27:39.324Z,12.93
2018-07-29T06:30:07.797Z,10.73
2018-07-29T06:32:37.000Z,9.50
2018-07-29T06:35:05.056Z,13.23
2018-07-29T06:37:33.224Z,8.07
2018-07-29T06:40:01.222Z,10.07
2018-07-29T06:42:29.221Z,9.77
2018-07-29T06:44:59.557Z,10.80
2018-07-29T06:47:27.940Z,17.13
2018-07-29T06:49:56.030Z,14.40
2018-07-29T06:52:31.089Z,10.50
2018-07-29T06:54:59.100Z,6.93
2018-07-29T06:57:27.392Z,9.70
2018-07-29T06:59:55.377Z,11.10
2018-07-29T07:02:23.683Z,9.67
2018-07-29T07:04:51.700Z,8.00
2018-07-29T07:07:19.705Z,10.40
2018-07-29T07:09:47.684Z,8.30
2018-07-29T07:12:15.700Z,10.30
2018-07-29T07:14:43.733Z,11.90
2018-07-29T07:17:11.931Z,10.63
2018-07-29T07:19:39.970Z,6.83
2018-07-29T07:22:07.969Z,11.57
2018-07-29T07:24:36.021Z,17.43
2018-07-29T07:27:04.116Z,7.40
2018-07-29T07:29:32.085Z,7.47
2018-07-29T07:32:00.105Z,12.93
2018-07-29T07:34:28.344Z,7.47
2018-07-29T07:36:56.456Z,7.37
2018-07-29T07:39:24.541Z,25.30
2018-07-29T07:41:52.764Z,11.23
2018-07-29T07:44:21.035Z,9.90
2018-07-29T07:46:49.229Z,10.43
2018-07-29T07:49:17.293Z,8.10
2018-07-29T07:51:45.276Z,20.23
2018-07-29T07:56:54.753Z,8.20
2018-07-29T07:59:22.769Z,13.80
2018-07-29T08:01:51.167Z,11.60
2018-07-29T08:04:19.073Z,9.33
2018-07-29T08:06:47.112Z,12.40
2018-07-29T08:09:15.217Z,10.20
2018-07-29T08:11:44.188Z,11.30
2018-07-29T08:14:12.309Z,9.03
2018-07-29T08:16:40.569Z,10.23
2018-07-29T08:19:08.576Z,9.20
2018-07-29T08:21:36.696Z,3.30
2018-07-29T08:24:06.032Z,10.53
2018-07-29T08:26:34.123Z,7.33
2018-07-29T08:29:02.244Z,9.17
2018-07-29T08:31:30.247Z,6.10
2018-07-29T08:33:58.236Z,10.53
2018-07-29T08:36:26.274Z,7.70
2018-07-29T08:38:54.306Z,4.17
2018-07-29T08:41:22.255Z,10.43
2018-07-29T08:43:50.248Z,8.23
2018-07-29T08:46:19.241Z,11.53
2018-07-29T08:48:47.325Z,4.77
2018-07-29T08:51:15.389Z,6.80
2018-07-29T08:53:43.464Z,7.83
2018-07-29T08:56:11.552Z,10.17
2018-07-29T08:58:39.588Z,11.77
2018-07-29T09:01:07.995Z,5.20
2018-07-29T09:03:36.029Z,5.03
2018-07-29T09:06:04.034Z,9.27
2018-07-29T09:08:32.095Z,5.27
2018-07-29T09:11:00.164Z,6.37
2018-07-29T09:13:28.228Z,6.70
2018-07-29T09:15:56.392Z,6.80
2018-07-29T09:18:24.391Z,8.53
2018-07-29T09:20:52.504Z,9.90
2018-07-29T09:23:20.516Z,6.30
2018-07-29T09:25:49.520Z,5.63
2018-07-29T09:28:17.584Z,7.93
2018-07-29T09:30:46.703Z,7.87
2018-07-29T09:33:14.644Z,5.07
2018-07-29T09:35:42.654Z,5.20
2018-07-29T09:38:10.637Z,6.03
2018-07-29T09:40:38.649Z,5.57
2018-07-29T09:43:06.717Z,6.13
2018-07-29T09:45:34.882Z,4.10
2018-07-29T09:48:02.793Z,7.47
2018-07-29T09:50:30.799Z,24.43
2018-07-29T09:52:58.800Z,12.73
2018-07-29T09:55:26.918Z,6.30
2018-07-29T09:57:54.912Z,6.73
2018-07-29T10:00:27.127Z,8.07
2018-07-29T10:02:56.185Z,6.17
2018-07-29T10:05:24.160Z,3.83
2018-07-29T10:07:52.193Z,3.67
2018-07-29T10:10:20.410Z,3.17
2018-07-29T10:12:48.512Z,4.33
2018-07-29T10:15:16.502Z,3.83
2018-07-29T10:17:44.554Z,8.83
2018-07-29T10:20:12.644Z,3.67
2018-07-29T10:22:40.657Z,11.03
2018-07-29T10:25:08.710Z,8.07
2018-07-29T10:27:36.776Z,3.27
2018-07-29T10:30:05.390Z,5.43
2018-07-29T10:32:33.608Z,2.97
2018-07-29T10:35:01.611Z,12.43
2018-07-29T10:37:29.660Z,10.97
2018-07-29T10:39:57.701Z,4.03
2018-07-29T10:42:25.731Z,3.70
2018-07-29T10:44:53.829Z,4.63
2018-07-29T10:47:21.885Z,5.40
2018-07-29T10:49:50.096Z,6.67
2018-07-29T10:52:18.151Z,6.30
2018-07-29T10:54:46.140Z,4.80
2018-07-29T10:57:14.304Z,7.13
2018-07-29T10:59:42.332Z,15.40
2018-07-29T11:02:10.406Z,9.40
2018-07-29T11:04:38.405Z,5.83
2018-07-29T11:07:06.467Z,6.67
2018-07-29T11:09:34.464Z,11.33
2018-07-29T11:12:02.481Z,11.57
2018-07-29T11:14:30.478Z,3.67
2018-07-29T11:16:58.510Z,8.23
2018-07-29T11:19:26.500Z,6.53
2018-07-29T11:21:54.503Z,11.23
2018-07-29T11:24:22.484Z,4.83
2018-07-29T11:26:50.515Z,4.83
2018-07-29T11:29:18.585Z,12.60
2018-07-29T11:31:46.564Z,6.03
2018-07-29T11:34:14.548Z,4.17
2018-07-29T11:36:42.556Z,9.13
2018-07-29T11:39:11.188Z,10.70
2018-07-29T11:41:39.195Z,8.57
2018-07-29T11:44:07.632Z,10.57
2018-07-29T11:46:35.692Z,11.43
2018-07-29T11:49:04.089Z,4.27
2018-07-29T11:51:32.158Z,5.87
2018-07-29T11:54:00.212Z,5.90
2018-07-29T11:56:29.436Z,4.33
2018-07-29T11:58:57.446Z,8.33
2018-07-29T12:01:26.818Z,7.47
2018-07-29T12:03:54.834Z,11.20
2018-07-29T12:06:22.825Z,5.43
2018-07-29T12:08:50.871Z,9.13
2018-07-29T12:11:18.918Z,6.97
2018-07-29T12:13:46.993Z,11.67
2018-07-29T12:16:15.155Z,11.90
2018-07-29T12:18:43.313Z,5.57
2018-07-29T12:21:11.314Z,4.97
2018-07-29T12:23:39.315Z,4.97
2018-07-29T12:26:07.425Z,4.73
2018-07-29T12:28:35.415Z,7.43
2018-07-29T12:31:03.433Z,8.50
2018-07-29T12:33:31.437Z,6.17
2018-07-29T12:35:59.720Z,4.03
2018-07-29T12:38:27.792Z,4.17
2018-07-29T12:40:55.824Z,6.37
2018-07-29T12:43:24.050Z,2.63
2018-07-29T12:45:52.068Z,5.10
2018-07-29T12:48:20.114Z,4.83
2018-07-29T12:50:48.114Z,4.70
2018-07-29T12:53:16.150Z,3.23
2018-07-29T12:55:44.152Z,4.37
2018-07-29T12:58:12.276Z,4.53
2018-07-29T13:00:40.284Z,2.90
2018-07-29T13:03:08.384Z,3.50
2018-07-29T13:05:37.469Z,5.27
2018-07-29T13:08:05.716Z,6.00
2018-07-29T13:10:33.745Z,4.97
2018-07-29T13:13:01.739Z,3.10
2018-07-29T13:15:29.728Z,5.90
2018-07-29T13:17:57.740Z,3.33
2018-07-29T13:20:25.720Z,6.67
2018-07-29T13:22:53.704Z,6.33
2018-07-29T13:25:21.792Z,30.07
2018-07-29T13:27:49.800Z,4.93
2018-07-29T13:30:17.797Z,6.07
2018-07-29T13:32:45.848Z,4.90
2018-07-29T13:35:13.790Z,4.50
2018-07-29T13:37:41.768Z,4.10
2018-07-29T13:40:09.938Z,2.90
2018-07-29T13:42:38.168Z,3.37
2018-07-29T13:45:08.064Z,12.10
2018-07-29T13:47:36.364Z,4.47
2018-07-29T13:50:05.728Z,7.20
2018-07-29T13:52:33.848Z,8.43
2018-07-29T13:55:01.913Z,4.30
2018-07-29T13:57:30.004Z,4.70
2018-07-29T13:59:58.084Z,4.80
2018-07-29T14:02:26.114Z,7.20
2018-07-29T14:04:54.133Z,4.97
2018-07-29T14:07:22.147Z,9.40
2018-07-29T14:09:50.164Z,3.43
2018-07-29T14:12:18.196Z,6.77
2018-07-29T14:14:46.173Z,7.20
2018-07-29T14:17:14.216Z,4.47
2018-07-29T14:19:42.500Z,5.40
2018-07-29T14:22:10.488Z,5.30
2018-07-29T14:24:38.528Z,4.53
2018-07-29T14:27:06.737Z,4.77
2018-07-29T14:29:34.737Z,4.60
2018-07-29T14:32:02.752Z,3.67
2018-07-29T14:34:30.864Z,6.77
2018-07-29T14:36:58.935Z,3.90
2018-07-29T14:39:26.995Z,4.33
2018-07-29T14:41:58.031Z,4.10
2018-07-29T14:44:26.019Z,9.27
2018-07-29T14:46:54.097Z,4.63
2018-07-29T14:49:22.093Z,4.00
2018-07-29T14:51:50.209Z,5.77
2018-07-29T14:54:19.296Z,4.20
2018-07-29T14:56:47.327Z,5.13
2018-07-29T14:59:15.412Z,4.27
2018-07-29T15:01:43.566Z,5.83
2018-07-29T15:04:11.677Z,4.30
2018-07-29T15:06:40.700Z,4.87
2018-07-29T15:09:09.838Z,4.40
2018-07-29T15:11:37.849Z,6.93
2018-07-29T15:14:06.186Z,6.00
2018-07-29T15:16:34.169Z,4.20
2018-07-29T15:19:02.216Z,3.87
2018-07-29T15:21:30.273Z,3.90
2018-07-29T15:23:58.673Z,3.97
2018-07-29T15:26:26.712Z,3.87
2018-07-29T15:28:54.795Z,4.03
2018-07-29T15:31:22.768Z,3.67
2018-07-29T15:33:50.836Z,4.53
2018-07-29T15:36:18.760Z,4.30
2018-07-29T15:38:46.804Z,3.80
2018-07-29T15:41:14.796Z,3.73
2018-07-29T15:43:42.788Z,6.63
2018-07-29T15:46:10.786Z,4.03
2018-07-29T15:48:38.798Z,5.50
2018-07-29T15:51:06.843Z,4.10
2018-07-29T15:53:34.892Z,5.00
2018-07-29T15:56:02.952Z,3.97
2018-07-29T15:58:31.045Z,3.60
2018-07-29T16:01:00.141Z,4.50
2018-07-29T16:03:28.216Z,7.93
2018-07-29T16:05:56.189Z,7.63
2018-07-29T16:08:24.192Z,3.97
2018-07-29T16:10:52.207Z,4.00
2018-07-29T16:13:20.400Z,3.87
2018-07-29T16:15:48.420Z,3.83
2018-07-29T16:18:16.578Z,13.57
2018-07-29T16:20:44.585Z,7.47
2018-07-29T16:23:12.602Z,4.13
2018-07-29T16:25:40.593Z,3.43
2018-07-29T16:28:08.616Z,4.03
2018-07-29T16:30:36.700Z,3.40
2018-07-29T16:33:04.700Z,3.63
2018-07-29T16:35:32.733Z,4.50
2018-07-29T16:38:00.736Z,3.90
2018-07-29T16:40:28.815Z,4.90
2018-07-29T16:42:56.859Z,8.57
2018-07-29T16:45:24.851Z,6.50
2018-07-29T16:47:52.938Z,6.77
2018-07-29T16:50:21.059Z,4.60
2018-07-29T16:52:49.112Z,3.40
2018-07-29T16:55:17.223Z,9.80
2018-07-29T16:57:45.354Z,5.67
2018-07-29T17:00:13.481Z,3.27
2018-07-29T17:02:41.558Z,4.80
2018-07-29T17:05:09.561Z,5.40
2018-07-29T17:07:37.695Z,3.70
2018-07-29T17:10:05.721Z,3.20
2018-07-29T17:12:33.741Z,3.23
2018-07-29T17:15:01.729Z,4.07
2018-07-29T17:17:29.736Z,2.90
2018-07-29T17:19:57.805Z,3.03
2018-07-29T17:22:25.925Z,5.83
2018-07-29T17:24:53.970Z,2.70
2018-07-29T17:27:22.013Z,6.13
2018-07-29T17:29:50.141Z,3.20
2018-07-29T17:32:18.329Z,5.83
2018-07-29T17:34:46.441Z,3.00
2018-07-29T17:37:14.465Z,2.70
2018-07-29T17:39:42.574Z,6.10
2018-07-29T17:42:10.556Z,2.90
2018-07-29T17:44:38.660Z,6.73
2018-07-29T17:47:06.681Z,7.60
2018-07-29T17:49:34.729Z,2.73
2018-07-29T17:52:02.725Z,2.70
2018-07-29T17:54:30.724Z,2.70
2018-07-29T17:56:58.796Z,7.83
2018-07-29T17:59:26.852Z,6.27
2018-07-29T18:01:54.912Z,2.97
2018-07-29T18:04:22.961Z,2.43
2018-07-29T18:06:51.108Z,3.83
2018-07-29T18:09:19.180Z,2.60
2018-07-29T18:11:47.254Z,3.30
2018-07-29T18:14:15.237Z,3.23
2018-07-29T18:16:43.253Z,2.70
2018-07-29T18:19:11.240Z,3.30
2018-07-29T18:21:39.241Z,3.50
2018-07-29T18:24:07.239Z,3.20
2018-07-29T18:26:35.229Z,2.90
2018-07-29T18:29:03.273Z,3.93
2018-07-29T18:31:31.293Z,3.93
2018-07-29T18:33:59.329Z,4.00
2018-07-29T18:36:27.331Z,9.40
2018-07-29T18:38:55.352Z,3.80
2018-07-29T18:41:23.388Z,4.60
2018-07-29T18:43:51.395Z,4.33
2018-07-29T18:46:19.484Z,8.87
2018-07-29T18:48:47.502Z,9.87
2018-07-29T18:51:15.560Z,3.07
2018-07-29T18:53:44.762Z,10.13
2018-07-29T18:56:12.872Z,3.37
2018-07-29T18:58:40.908Z,4.07
2018-07-29T19:01:08.976Z,3.23
2018-07-29T19:03:36.976Z,7.00
2018-07-29T19:06:05.065Z,2.97
2018-07-29T19:08:33.040Z,4.20
2018-07-29T19:11:02.096Z,7.77
2018-07-29T19:13:30.212Z,3.67
2018-07-29T19:15:58.245Z,9.33
2018-07-29T19:18:26.321Z,7.23
2018-07-29T19:20:54.633Z,4.13
2018-07-29T19:23:22.637Z,5.40
2018-07-29T19:25:50.747Z,3.43
2018-07-29T19:28:18.776Z,6.77
2018-07-29T19:30:46.799Z,11.97
2018-07-29T19:33:14.888Z,3.20
2018-07-29T19:35:42.889Z,6.13
2018-07-29T19:38:10.876Z,3.73
2018-07-29T19:40:38.890Z,3.57
2018-07-29T19:43:06.920Z,4.90
2018-07-29T19:45:35.005Z,6.13
2018-07-29T19:48:03.130Z,7.83
2018-07-29T19:50:31.126Z,4.57
2018-07-29T19:52:59.221Z,5.70
2018-07-29T19:55:27.479Z,3.30
2018-07-29T19:57:55.697Z,2.77
2018-07-29T20:00:23.717Z,10.07
2018-07-29T20:02:51.784Z,4.00
2018-07-29T20:05:19.784Z,6.03
2018-07-29T20:07:47.788Z,4.47
2018-07-29T20:10:15.777Z,7.87
2018-07-29T20:12:43.999Z,8.20
2018-07-29T20:15:12.049Z,8.23
2018-07-29T20:17:40.101Z,7.90
2018-07-29T20:20:08.725Z,3.10
2018-07-29T20:22:36.784Z,6.33
2018-07-29T20:25:05.176Z,5.23
2018-07-29T20:27:33.186Z,7.83
2018-07-29T20:30:01.218Z,5.40
2018-07-29T20:32:29.262Z,5.43
2018-07-29T20:34:57.251Z,10.80
2018-07-29T20:37:25.270Z,3.37
2018-07-29T20:39:53.372Z,5.70
2018-07-29T20:42:25.534Z,3.43
2018-07-29T20:44:53.554Z,3.93
2018-07-29T20:47:21.593Z,5.37
2018-07-29T20:49:49.632Z,3.43
2018-07-29T20:52:17.660Z,3.93
2018-07-29T20:54:45.685Z,4.90
2018-07-29T20:57:13.773Z,7.90
2018-07-29T20:59:41.751Z,5.13
2018-07-29T21:02:09.762Z,5.30
2018-07-29T21:04:37.831Z,3.53
2018-07-29T21:07:05.860Z,5.63
2018-07-29T21:09:33.896Z,29.53
2018-07-29T21:12:02.916Z,6.50
2018-07-29T21:14:30.908Z,4.10
2018-07-29T21:16:59.006Z,9.37
2018-07-29T21:19:27.034Z,4.40
2018-07-29T21:21:55.033Z,6.27
2018-07-29T21:24:23.386Z,3.50
2018-07-29T21:26:55.325Z,3.60
2018-07-29T21:29:23.323Z,8.03
2018-07-29T21:31:51.356Z,11.13
2018-07-29T21:34:19.420Z,4.43
2018-07-29T21:36:47.426Z,4.47
2018-07-29T21:39:15.512Z,5.07
2018-07-29T21:41:43.522Z,6.83
2018-07-29T21:44:11.595Z,10.00
2018-07-29T21:46:39.603Z,4.23
2018-07-29T21:49:07.665Z,10.47
2018-07-29T21:51:35.744Z,7.40
2018-07-29T21:54:03.688Z,4.57
2018-07-29T21:56:31.821Z,5.03
2018-07-29T21:58:59.831Z,4.97
2018-07-29T22:01:27.878Z,7.60
2018-07-29T22:03:55.888Z,8.10
2018-07-29T22:06:23.907Z,4.73
2018-07-29T22:08:51.934Z,4.87
2018-07-29T22:11:19.976Z,8.90
2018-07-29T22:13:48.011Z,5.93
2018-07-29T22:16:16.029Z,5.40
2018-07-29T22:18:44.047Z,6.97
2018-07-29T22:21:12.029Z,5.73
2018-07-29T22:23:40.045Z,5.37
2018-07-29T22:26:14.145Z,7.33
2018-07-29T22:28:51.423Z,4.90
2018-07-29T22:31:25.761Z,5.40
2018-07-29T22:33:53.759Z,6.60
2018-07-29T22:36:22.827Z,7.20
2018-07-29T22:38:50.829Z,5.63
2018-07-29T22:41:18.969Z,5.57
2018-07-29T22:43:46.995Z,8.60
2018-07-29T22:46:15.044Z,5.63
2018-07-29T22:48:43.052Z,5.60
2018-07-29T22:51:11.059Z,5.23
2018-07-29T22:53:39.068Z,6.03
2018-07-29T22:56:07.069Z,5.33
2018-07-29T22:58:35.089Z,6.10
2018-07-29T23:01:03.096Z,5.37
2018-07-29T23:03:31.101Z,7.97
2018-07-29T23:05:59.091Z,8.30
2018-07-29T23:08:27.588Z,5.70
2018-07-29T23:10:55.611Z,4.60
2018-07-29T23:13:24.721Z,6.43
2018-07-29T23:15:52.717Z,4.70
2018-07-29T23:18:20.744Z,5.83
2018-07-29T23:20:48.740Z,5.10
2018-07-29T23:23:16.893Z,5.47
2018-07-29T23:25:44.906Z,4.10
2018-07-29T23:28:12.924Z,9.30
2018-07-29T23:30:41.027Z,4.67
2018-07-29T23:33:09.046Z,4.93
2018-07-29T23:35:37.032Z,4.67
2018-07-29T23:38:05.086Z,5.03
2018-07-29T23:40:33.077Z,4.77
2018-07-29T23:43:01.120Z,4.33
2018-07-29T23:45:29.113Z,7.60
2018-07-29T23:47:57.155Z,8.20
2018-07-29T23:50:25.165Z,4.60
2018-07-29T23:52:54.873Z,4.90
2018-07-29T23:55:22.880Z,4.90
2018-07-29T23:57:51.921Z,4.50
